Time;durP1;ratioP1;P1;durP2;ratioP2;P2;SDS_P1;SDS_P2;PMS_P1;PMS_P2;Temp;Humidity;BMP_temperature;BMP_pressure;BME280_temperature;BME280_humidity;BME280_pressure;Samples;Min_cycle;Max_cycle;Signal;HPM_P1;HPM_P2
2022/01/06 00:00:47;;;;;;;32.97;3.38;;;6.00;99.90;;;;;;5035275;28;20159;-92
2022/01/06 00:03:12;;;;;;;25.40;3.00;;;6.00;99.90;;;;;;5018780;28;20042;-92
2022/01/06 00:05:38;;;;;;;23.02;2.08;;;5.90;99.80;;;;;;5034866;28;20061;-92
2022/01/06 00:08:04;;;;;;;17.05;1.90;;;5.80;99.70;;;;;;5035563;28;20140;-93
2022/01/06 00:10:31;;;;;;;26.13;1.90;;;5.70;99.50;;;;;;5036076;28;20405;-92
2022/01/06 00:25:45;;;;;;;12.27;1.58;;;5.90;99.10;;;;;;5035404;28;20053;-91
2022/01/06 00:28:12;;;;;;;11.30;1.30;;;5.90;99.00;;;;;;5018468;28;20107;-92
2022/01/06 00:30:39;;;;;;;13.25;1.30;;;5.90;99.00;;;;;;5034987;28;20050;-90
2022/01/06 00:33:05;;;;;;;21.98;1.85;;;5.90;99.20;;;;;;5034841;28;20481;-92
2022/01/06 00:35:31;;;;;;;15.65;1.38;;;5.80;99.20;;;;;;5018382;28;20128;-92
2022/01/06 00:37:57;;;;;;;16.27;1.60;;;5.80;99.30;;;;;;5018352;28;20084;-91
2022/01/06 00:40:23;;;;;;;22.55;2.17;;;5.90;99.30;;;;;;5034895;28;20045;-90
2022/01/06 00:42:48;;;;;;;19.88;2.20;;;6.00;99.20;;;;;;5018199;28;20427;-92
2022/01/06 00:45:14;;;;;;;11.98;2.13;;;6.10;99.30;;;;;;5034707;28;20500;-92
2022/01/06 00:47:40;;;;;;;23.55;2.38;;;6.00;99.40;;;;;;5034268;28;20057;-92
2022/01/06 00:50:06;;;;;;;15.88;1.73;;;5.80;99.40;;;;;;5034162;28;20053;-92
2022/01/06 00:52:33;;;;;;;11.45;1.67;;;6.00;99.40;;;;;;5001517;28;20087;-92
2022/01/06 00:54:58;;;;;;;19.42;2.00;;;6.10;99.50;;;;;;5034500;28;20053;-92
2022/01/06 00:57:24;;;;;;;14.10;1.85;;;6.10;99.30;;;;;;5034385;28;20049;-91
2022/01/06 00:59:50;;;;;;;16.95;2.00;;;6.00;99.40;;;;;;5034946;28;20052;-91
2022/01/06 01:02:16;;;;;;;19.20;1.98;;;6.00;99.40;;;;;;5017924;28;20045;-93
2022/01/06 01:04:42;;;;;;;15.57;1.65;;;6.00;99.40;;;;;;5017496;28;20431;-92
2022/01/06 01:07:07;;;;;;;15.50;1.90;;;5.90;99.40;;;;;;5018331;28;20540;-91
2022/01/06 01:09:33;;;;;;;14.63;1.85;;;5.90;99.50;;;;;;5017688;28;20095;-91
2022/01/06 01:12:02;;;;;;;20.30;1.67;;;6.00;99.40;;;;;;5034079;28;20068;-91
2022/01/06 01:14:32;;;;;;;16.35;1.67;;;6.00;99.40;;;;;;5034230;28;20060;-91
2022/01/06 01:17:01;;;;;;;21.15;1.92;;;6.10;99.30;;;;;;5017513;28;20400;-92
2022/01/06 01:19:28;;;;;;;22.20;2.53;;;6.00;99.40;;;;;;5034120;28;20049;-90
2022/01/06 01:21:54;;;;;;;16.95;2.17;;;6.00;99.40;;;;;;5017365;28;20510;-92
2022/01/06 01:24:21;;;;;;;17.65;1.85;;;6.00;99.20;;;;;;5017855;28;20132;-92
2022/01/06 01:26:47;;;;;;;14.65;1.38;;;6.00;99.30;;;;;;5034016;28;20052;-91
2022/01/06 01:29:16;;;;;;;12.95;1.58;;;6.00;99.30;;;;;;5034202;28;20046;-92
2022/01/06 01:32:01;;;;;;;14.23;1.30;;;6.00;99.30;;;;;;5034060;28;20048;-91
2022/01/06 01:34:28;;;;;;;11.60;1.67;;;6.00;99.30;;;;;;5017437;28;20075;-92
2022/01/06 01:36:55;;;;;;;13.93;1.42;;;6.00;99.50;;;;;;5034392;28;20049;-91
2022/01/06 01:39:22;;;;;;;9.02;1.40;;;6.00;99.30;;;;;;5017474;28;20095;-91
2022/01/06 01:41:49;;;;;;;16.17;1.60;;;6.00;99.40;;;;;;5017224;28;20095;-91
2022/01/06 01:44:18;;;;;;;12.98;1.80;;;6.00;99.20;;;;;;5033419;28;20050;-92
2022/01/06 01:46:52;;;;;;;15.10;1.02;;;6.10;99.20;;;;;;5033778;28;20087;-91
2022/01/06 01:51:51;;;;;;;15.85;2.05;;;6.10;99.20;;;;;;5033965;28;20045;-89
2022/01/06 01:54:17;;;;;;;18.65;1.90;;;6.10;99.10;;;;;;5033498;28;20124;-91
2022/01/06 01:56:44;;;;;;;15.20;1.30;;;6.00;99.20;;;;;;5033728;28;20124;-92
2022/01/06 01:59:10;;;;;;;13.32;1.60;;;6.00;99.10;;;;;;5017178;28;20045;-92
2022/01/06 02:01:36;;;;;;;13.90;1.42;;;5.90;99.40;;;;;;5037582;28;20136;-92
2022/01/06 02:04:02;;;;;;;22.70;2.45;;;5.90;99.40;;;;;;5037053;28;20041;-91
2022/01/06 02:06:28;;;;;;;11.85;1.25;;;6.00;99.30;;;;;;5021480;28;20050;-92
2022/01/06 02:08:57;;;;;;;10.00;1.48;;;6.00;99.30;;;;;;5021365;28;20046;-91
2022/01/06 02:11:23;;;;;;;8.45;1.55;;;6.00;99.40;;;;;;5037497;28;20480;-91
2022/01/06 02:13:50;;;;;;;10.10;1.00;;;5.90;99.50;;;;;;5054670;28;20499;-91
2022/01/06 02:16:24;;;;;;;12.02;1.20;;;6.00;99.60;;;;;;5037533;28;20136;-91
2022/01/06 02:18:51;;;;;;;13.68;1.38;;;6.00;99.60;;;;;;5037447;28;20049;-91
2022/01/06 02:21:18;;;;;;;17.00;1.40;;;6.00;99.40;;;;;;5037255;28;20107;-91
2022/01/06 02:23:44;;;;;;;13.23;1.38;;;6.10;99.40;;;;;;5037102;28;20051;-91
2022/01/06 02:26:10;;;;;;;12.55;0.90;;;6.10;99.50;;;;;;5037347;28;20380;-92
2022/01/06 02:28:37;;;;;;;8.18;0.85;;;6.20;99.50;;;;;;5037529;28;20099;-91
2022/01/06 02:31:02;;;;;;;12.75;1.73;;;6.20;99.50;;;;;;5020655;28;20124;-92
2022/01/06 02:33:28;;;;;;;8.95;1.17;;;6.30;99.30;;;;;;5037234;28;20085;-91
2022/01/06 02:35:55;;;;;;;12.57;1.35;;;6.10;99.30;;;;;;5020663;28;20045;-91
2022/01/06 02:38:22;;;;;;;19.70;1.77;;;6.10;99.40;;;;;;5053750;28;20111;-92
2022/01/06 02:40:49;;;;;;;15.98;1.30;;;6.10;99.40;;;;;;5037437;28;20049;-91
2022/01/06 02:43:17;;;;;;;17.38;2.38;;;6.00;99.40;;;;;;5036937;28;20396;-92
2022/01/06 02:45:46;;;;;;;18.58;1.17;;;6.00;99.50;;;;;;5036846;28;20045;-92
2022/01/06 02:48:14;;;;;;;17.73;2.17;;;6.00;99.40;;;;;;5036808;28;20393;-91
2022/01/06 02:50:45;;;;;;;11.60;1.30;;;6.00;99.20;;;;;;5036872;28;20049;-91
2022/01/06 02:53:12;;;;;;;13.15;1.55;;;5.90;99.30;;;;;;5036568;28;20148;-91
2022/01/06 02:55:47;;;;;;;9.48;1.70;;;5.80;99.30;;;;;;5020252;28;20049;-91
2022/01/06 02:58:13;;;;;;;13.88;2.00;;;5.70;99.30;;;;;;5036750;28;20050;-92
2022/01/06 03:00:39;;;;;;;20.13;1.67;;;5.60;99.30;;;;;;5020067;28;20050;-91
2022/01/06 03:03:05;;;;;;;14.48;1.40;;;5.60;99.40;;;;;;5036590;28;20045;-91
2022/01/06 03:05:30;;;;;;;20.02;2.15;;;5.50;99.40;;;;;;5020555;28;20071;-91
2022/01/06 03:07:56;;;;;;;17.40;1.35;;;5.40;99.40;;;;;;5020586;28;20052;-91
2022/01/06 03:10:23;;;;;;;10.77;1.70;;;5.40;99.40;;;;;;5020030;28;20049;-90
2022/01/06 03:12:49;;;;;;;11.85;1.40;;;5.40;99.60;;;;;;5018771;28;20041;-90
2022/01/06 03:15:20;;;;;;;15.18;1.60;;;5.40;99.50;;;;;;5036271;28;20049;-90
2022/01/06 03:17:49;;;;;;;16.88;1.63;;;5.40;99.40;;;;;;5035841;28;20041;-90
2022/01/06 03:20:16;;;;;;;9.05;1.35;;;5.40;99.50;;;;;;5036605;28;20077;-90
2022/01/06 03:22:42;;;;;;;19.20;2.45;;;5.40;99.30;;;;;;5035633;28;20045;-91
2022/01/06 03:25:10;;;;;;;15.95;1.90;;;5.40;99.30;;;;;;5020009;28;20057;-91
2022/01/06 03:27:36;;;;;;;18.35;1.42;;;5.40;99.30;;;;;;5019665;28;20057;-89
2022/01/06 03:30:07;;;;;;;17.02;2.10;;;5.40;99.20;;;;;;5036086;28;20550;-91
2022/01/06 03:32:34;;;;;;;16.58;2.03;;;5.40;99.10;;;;;;5035737;28;20041;-90
2022/01/06 03:34:59;;;;;;;9.18;1.00;;;5.40;99.30;;;;;;5019354;28;20057;-91
2022/01/06 03:37:26;;;;;;;9.50;1.40;;;5.50;99.40;;;;;;5036038;28;20049;-90
2022/01/06 03:39:51;;;;;;;17.60;1.55;;;5.50;99.30;;;;;;5036037;28;20081;-90
2022/01/06 03:42:17;;;;;;;19.88;2.45;;;5.60;99.20;;;;;;5019287;28;20531;-91
2022/01/06 03:44:43;;;;;;;18.35;1.70;;;5.50;98.90;;;;;;5002719;28;20091;-91
2022/01/06 03:47:09;;;;;;;21.10;2.70;;;5.50;99.00;;;;;;5035629;28;20068;-91
2022/01/06 03:49:35;;;;;;;14.20;2.65;;;5.50;99.00;;;;;;5019288;28;20089;-90
2022/01/06 03:52:01;;;;;;;12.25;1.67;;;5.40;98.90;;;;;;5035223;28;20503;-91
2022/01/06 03:54:27;;;;;;;10.90;1.20;;;5.40;99.00;;;;;;5002925;28;20135;-90
2022/01/06 03:56:53;;;;;;;20.23;2.20;;;5.40;98.90;;;;;;5035216;28;20050;-90
2022/01/06 03:59:20;;;;;;;16.60;2.22;;;5.30;98.90;;;;;;5035386;28;20041;-90
2022/01/06 04:01:46;;;;;;;16.77;1.70;;;5.30;99.00;;;;;;5019161;28;20139;-90
2022/01/06 04:04:13;;;;;;;14.40;1.60;;;5.30;99.10;;;;;;5034749;28;20062;-91
2022/01/06 04:06:40;;;;;;;10.45;1.13;;;5.30;99.20;;;;;;5035348;28;20191;-90
2022/01/06 04:09:06;;;;;;;6.90;1.33;;;5.30;98.90;;;;;;5035129;28;20104;-89
2022/01/06 04:11:32;;;;;;;15.20;1.95;;;5.20;98.80;;;;;;5034962;28;20128;-89
2022/01/06 04:13:57;;;;;;;13.18;1.63;;;5.00;98.20;;;;;;5018546;28;20042;-89
2022/01/06 04:16:25;;;;;;;19.23;2.33;;;4.90;98.70;;;;;;5034990;28;20476;-89
2022/01/06 04:18:51;;;;;;;14.75;1.70;;;4.80;98.50;;;;;;5034921;28;20057;-89
2022/01/06 04:21:17;;;;;;;10.88;1.30;;;4.60;98.20;;;;;;5019087;28;20045;-90
2022/01/06 04:23:43;;;;;;;12.55;1.40;;;4.60;98.70;;;;;;5017515;28;20045;-89
2022/01/06 04:26:09;;;;;;;13.13;2.20;;;4.60;98.80;;;;;;5035028;28;20050;-90
2022/01/06 04:28:36;;;;;;;14.73;1.45;;;4.50;98.80;;;;;;5034757;28;20366;-89
2022/01/06 04:31:01;;;;;;;13.13;1.85;;;4.50;98.80;;;;;;5034648;28;20045;-89
2022/01/06 04:33:27;;;;;;;11.50;1.45;;;4.40;99.00;;;;;;5034636;28;20393;-90
2022/01/06 04:35:53;;;;;;;9.48;1.15;;;4.40;99.10;;;;;;5018100;28;20136;-89
2022/01/06 04:38:18;;;;;;;10.90;1.65;;;4.40;99.00;;;;;;5018291;28;20045;-90
2022/01/06 04:40:44;;;;;;;10.50;1.42;;;4.50;99.10;;;;;;5034410;28;20046;-89
2022/01/06 04:43:10;;;;;;;10.38;1.88;;;4.40;99.10;;;;;;5034177;28;20404;-89
2022/01/06 04:45:36;;;;;;;15.20;1.40;;;4.40;99.20;;;;;;5034412;28;20392;-89
2022/01/06 04:48:01;;;;;;;16.50;1.42;;;4.30;99.00;;;;;;5017906;28;20056;-89
2022/01/06 04:50:27;;;;;;;14.38;1.83;;;4.10;98.90;;;;;;5017717;28;20515;-89
2022/01/06 04:52:53;;;;;;;8.32;0.95;;;4.00;99.10;;;;;;5017294;28;20104;-89
2022/01/06 04:55:19;;;;;;;12.85;1.70;;;4.00;99.20;;;;;;5017722;28;20385;-88
2022/01/06 04:57:44;;;;;;;15.65;1.52;;;4.00;99.30;;;;;;5017419;28;20089;-89
2022/01/06 05:00:10;;;;;;;12.98;1.50;;;4.00;99.10;;;;;;5017437;28;20484;-89
2022/01/06 05:02:36;;;;;;;16.10;1.50;;;4.00;98.80;;;;;;5033819;28;20052;-88
2022/01/06 05:05:03;;;;;;;15.77;1.23;;;3.90;99.00;;;;;;5016901;28;20140;-88
2022/01/06 05:07:28;;;;;;;14.95;1.92;;;3.70;99.20;;;;;;5033632;28;20084;-89
2022/01/06 05:09:54;;;;;;;14.07;1.60;;;3.80;99.40;;;;;;5031855;28;20445;-88
2022/01/06 05:12:20;;;;;;;10.63;1.30;;;3.90;99.40;;;;;;5032028;28;20365;-89
2022/01/06 05:14:51;;;;;;;13.77;1.88;;;3.90;99.40;;;;;;5033219;28;20131;-88
2022/01/06 05:17:17;;;;;;;15.05;1.48;;;3.90;99.40;;;;;;5033795;28;20049;-88
2022/01/06 05:19:43;;;;;;;9.98;1.40;;;4.00;99.30;;;;;;5033657;28;20041;-88
2022/01/06 05:22:09;;;;;;;12.68;1.40;;;3.90;99.20;;;;;;5033596;28;20038;-88
2022/01/06 05:24:37;;;;;;;8.63;1.25;;;3.90;99.30;;;;;;5033051;28;20049;-88
2022/01/06 05:27:04;;;;;;;10.77;1.42;;;3.90;99.40;;;;;;5016997;28;20053;-89
2022/01/06 05:29:30;;;;;;;12.20;1.55;;;3.90;99.40;;;;;;5017208;28;20089;-88
2022/01/06 05:31:56;;;;;;;11.65;1.30;;;3.90;99.30;;;;;;5033188;28;20053;-88
2022/01/06 05:34:22;;;;;;;14.20;1.45;;;3.90;99.40;;;;;;5032593;28;20095;-89
2022/01/06 05:36:48;;;;;;;8.75;1.08;;;3.90;99.50;;;;;;5033201;28;20080;-88
2022/01/06 05:39:14;;;;;;;17.58;2.13;;;4.00;99.50;;;;;;5033155;28;20094;-88
2022/01/06 05:41:39;;;;;;;19.17;1.30;;;3.90;99.30;;;;;;5033541;28;20128;-88
2022/01/06 05:44:05;;;;;;;18.08;1.88;;;3.90;99.20;;;;;;5032963;28;20120;-88
2022/01/06 05:46:31;;;;;;;14.57;1.48;;;3.80;99.10;;;;;;5016623;28;20041;-88
2022/01/06 05:48:56;;;;;;;9.80;1.13;;;3.70;99.30;;;;;;5033179;28;20052;-89
2022/01/06 05:51:22;;;;;;;15.57;1.83;;;3.80;99.40;;;;;;5016663;28;20046;-89
2022/01/06 05:53:50;;;;;;;10.93;0.93;;;3.80;99.50;;;;;;4999902;28;20046;-88
2022/01/06 05:56:16;;;;;;;9.82;1.05;;;3.90;99.60;;;;;;5032800;28;20522;-88
2022/01/06 05:58:41;;;;;;;10.55;1.65;;;3.90;99.50;;;;;;5032939;28;20047;-88
2022/01/06 06:01:07;;;;;;;11.85;1.88;;;3.90;99.50;;;;;;5032715;28;20400;-88
2022/01/06 06:03:35;;;;;;;12.50;1.10;;;3.90;99.50;;;;;;5000127;28;20038;-88
2022/01/06 06:06:01;;;;;;;12.50;0.90;;;3.90;99.40;;;;;;5032233;28;20068;-88
2022/01/06 06:08:27;;;;;;;14.07;1.30;;;3.90;99.40;;;;;;5032673;28;20479;-88
2022/01/06 06:10:53;;;;;;;13.52;1.70;;;3.90;99.20;;;;;;5032701;28;20077;-88
2022/01/06 06:13:18;;;;;;;16.17;1.75;;;3.70;99.20;;;;;;5032937;28;20053;-88
2022/01/06 06:15:44;;;;;;;17.38;1.83;;;3.70;99.40;;;;;;5033243;28;20073;-88
2022/01/06 06:18:11;;;;;;;11.57;1.80;;;3.70;99.40;;;;;;5033317;28;20061;-88
2022/01/06 06:20:37;;;;;;;6.63;1.15;;;3.70;99.40;;;;;;5016477;28;20469;-88
2022/01/06 06:23:03;;;;;;;17.58;1.73;;;3.70;99.50;;;;;;5032115;28;20037;-88
2022/01/06 06:25:29;;;;;;;12.35;1.58;;;3.60;99.40;;;;;;5032694;28;20057;-88
2022/01/06 06:27:55;;;;;;;19.25;1.75;;;3.60;99.50;;;;;;5032511;28;20103;-88
2022/01/06 06:30:20;;;;;;;13.20;2.13;;;3.70;99.70;;;;;;5032566;28;20053;-88
2022/01/06 06:32:46;;;;;;;13.60;1.50;;;3.70;99.60;;;;;;5032671;28;20078;-88
2022/01/06 06:35:12;;;;;;;10.68;1.20;;;3.70;99.70;;;;;;5016064;28;20080;-89
2022/01/06 06:37:38;;;;;;;18.58;1.50;;;3.70;99.70;;;;;;5015920;28;20049;-88
2022/01/06 06:40:05;;;;;;;13.00;0.90;;;3.70;99.60;;;;;;5032688;28;20049;-88
2022/01/06 06:42:31;;;;;;;13.48;1.52;;;3.70;99.60;;;;;;5032424;28;20041;-88
2022/01/06 06:44:57;;;;;;;12.55;1.50;;;3.70;99.50;;;;;;5031898;28;20052;-88
2022/01/06 06:47:23;;;;;;;15.52;1.65;;;3.70;99.40;;;;;;5035969;28;20139;-88
2022/01/06 06:49:49;;;;;;;11.95;1.20;;;3.70;99.50;;;;;;5036280;28;20057;-88
2022/01/06 06:52:15;;;;;;;16.23;1.50;;;3.70;99.40;;;;;;5035809;28;20049;-88
2022/01/06 06:54:41;;;;;;;10.57;1.27;;;3.70;99.50;;;;;;5019770;28;20041;-88
2022/01/06 06:57:07;;;;;;;15.90;1.98;;;3.70;99.60;;;;;;5036110;28;20147;-89
2022/01/06 06:59:32;;;;;;;12.50;1.73;;;3.70;99.50;;;;;;5019688;28;20400;-88
2022/01/06 07:01:58;;;;;;;12.35;1.85;;;3.70;99.40;;;;;;5019510;28;20049;-88
2022/01/06 07:04:24;;;;;;;16.45;1.75;;;3.60;99.30;;;;;;5035220;28;20066;-88
2022/01/06 07:06:49;;;;;;;13.40;1.65;;;3.70;99.40;;;;;;5020237;28;20053;-88
2022/01/06 07:09:16;;;;;;;14.32;1.70;;;3.70;99.20;;;;;;5035823;28;20069;-88
2022/01/06 07:11:41;;;;;;;17.65;1.95;;;3.70;99.30;;;;;;5035680;28;20049;-87
2022/01/06 07:14:07;;;;;;;13.95;1.58;;;3.60;99.10;;;;;;5035542;28;20045;-88
2022/01/06 07:16:33;;;;;;;12.05;1.77;;;3.50;99.20;;;;;;5035808;28;20049;-88
2022/01/06 07:18:58;;;;;;;19.60;2.33;;;3.50;98.80;;;;;;5035772;28;20237;-88
2022/01/06 07:21:24;;;;;;;18.30;1.98;;;3.50;99.10;;;;;;5019134;28;20049;-88
2022/01/06 07:23:52;;;;;;;16.27;1.75;;;3.50;99.10;;;;;;5018677;28;20045;-88
2022/01/06 07:26:18;;;;;;;19.13;1.77;;;3.50;99.30;;;;;;5035444;28;20049;-88
2022/01/06 07:28:43;;;;;;;9.23;1.33;;;3.50;99.30;;;;;;5035476;28;20057;-88
2022/01/06 07:31:09;;;;;;;18.88;1.67;;;3.50;99.10;;;;;;5019151;28;20389;-88
2022/01/06 07:33:35;;;;;;;12.82;1.90;;;3.50;99.30;;;;;;5035339;28;20053;-88
2022/01/06 07:36:01;;;;;;;8.60;1.35;;;3.40;99.40;;;;;;5035580;28;20056;-89
2022/01/06 07:38:26;;;;;;;13.50;1.58;;;3.40;99.40;;;;;;5035216;28;20128;-89
2022/01/06 07:40:52;;;;;;;14.27;1.45;;;3.40;99.60;;;;;;5035503;28;20526;-88
2022/01/06 07:43:17;;;;;;;13.35;2.05;;;3.40;99.50;;;;;;5035113;28;20531;-89
2022/01/06 07:45:43;;;;;;;16.23;1.65;;;3.40;99.40;;;;;;5035349;28;20556;-88
2022/01/06 07:48:25;;;;;;;12.27;1.38;;;3.40;99.30;;;;;;5035536;28;20041;-89
2022/01/06 07:50:51;;;;;;;16.45;1.77;;;3.40;99.40;;;;;;5018802;28;20053;-88
2022/01/06 07:53:17;;;;;;;14.98;1.52;;;3.30;99.60;;;;;;5034648;28;20057;-88
2022/01/06 07:55:43;;;;;;;19.27;1.85;;;3.30;99.60;;;;;;5035644;28;20052;-89
2022/01/06 07:58:09;;;;;;;9.50;1.45;;;3.40;99.50;;;;;;5001738;28;20057;-89
2022/01/06 08:00:35;;;;;;;13.55;1.70;;;3.40;99.40;;;;;;5035045;28;20052;-89
2022/01/06 08:03:01;;;;;;;14.75;1.55;;;3.40;99.40;;;;;;5034926;28;20422;-89
2022/01/06 08:05:27;;;;;;;12.68;1.85;;;3.40;99.40;;;;;;5034819;28;20060;-89
2022/01/06 08:07:54;;;;;;;15.43;1.50;;;3.40;99.60;;;;;;5018615;28;20071;-88
2022/01/06 08:10:21;;;;;;;12.30;1.52;;;3.60;99.50;;;;;;5034929;28;20092;-89
2022/01/06 08:12:47;;;;;;;24.55;2.38;;;3.40;99.50;;;;;;5034729;28;20072;-89
2022/01/06 08:15:14;;;;;;;16.55;2.40;;;3.50;99.40;;;;;;5018325;28;20053;-89
2022/01/06 08:17:40;;;;;;;15.13;1.90;;;3.50;99.40;;;;;;5035033;28;20111;-90
2022/01/06 08:20:07;;;;;;;21.92;1.88;;;3.50;99.30;;;;;;5035273;28;20412;-91
2022/01/06 08:22:33;;;;;;;13.27;1.75;;;3.50;99.30;;;;;;5034799;28;20108;-91
2022/01/06 08:24:59;;;;;;;11.98;1.98;;;3.50;99.50;;;;;;5034661;28;20124;-90
2022/01/06 08:27:25;;;;;;;11.77;1.67;;;3.60;99.60;;;;;;5034901;28;20045;-91
2022/01/06 08:29:52;;;;;;;16.42;1.98;;;3.70;99.40;;;;;;5035044;28;20059;-90
2022/01/06 08:32:21;;;;;;;14.52;1.73;;;3.70;99.50;;;;;;5034774;28;20089;-91
2022/01/06 08:34:47;;;;;;;25.55;2.17;;;3.60;99.30;;;;;;5035070;28;20053;-92
2022/01/06 08:37:12;;;;;;;12.20;1.85;;;3.60;99.30;;;;;;5034955;28;20045;-88
2022/01/06 08:39:38;;;;;;;16.65;1.95;;;3.60;99.20;;;;;;5033999;28;20042;-75
2022/01/06 08:42:05;;;;;;;15.80;1.88;;;3.70;99.60;;;;;;5033796;28;20053;-74
2022/01/06 08:44:30;;;;;;;14.35;2.38;;;3.80;99.60;;;;;;5037715;28;20106;-76
2022/01/06 08:46:58;;;;;;;14.40;3.10;;;3.80;99.60;;;;;;5039059;28;20132;-73
2022/01/06 08:49:24;;;;;;;15.27;2.13;;;3.90;99.70;;;;;;5033866;28;20052;-75
2022/01/06 08:51:49;;;;;;;17.27;2.60;;;4.00;99.60;;;;;;5033391;28;20161;-75
2022/01/06 08:54:16;;;;;;;12.45;2.08;;;4.10;99.60;;;;;;5033331;28;20052;-76
2022/01/06 08:56:41;;;;;;;15.75;2.40;;;4.10;99.40;;;;;;5033502;28;20052;-75
2022/01/06 08:59:07;;;;;;;21.33;2.42;;;4.10;99.40;;;;;;5033455;28;20489;-76
2022/01/06 09:01:33;;;;;;;16.08;2.40;;;4.10;99.30;;;;;;5033503;28;20071;-75
2022/01/06 09:03:59;;;;;;;14.68;1.98;;;4.10;99.50;;;;;;5033228;28;20045;-74
2022/01/06 09:06:24;;;;;;;13.27;2.08;;;4.00;99.20;;;;;;5032951;28;20103;-76
2022/01/06 09:08:50;;;;;;;17.85;2.13;;;3.90;99.50;;;;;;5032957;28;20060;-77
2022/01/06 09:11:16;;;;;;;12.48;2.13;;;4.00;99.80;;;;;;5032879;28;20045;-75
2022/01/06 09:13:42;;;;;;;17.38;2.50;;;4.10;99.50;;;;;;5034401;28;20099;-75
2022/01/06 09:16:08;;;;;;;10.95;2.13;;;4.20;99.60;;;;;;5028216;28;20057;-77
2022/01/06 09:18:38;;;;;;;23.58;2.67;;;4.20;99.50;;;;;;5029420;28;20124;-76
2022/01/06 09:21:05;;;;;;;14.10;2.17;;;4.30;99.50;;;;;;5030614;28;20063;-75
2022/01/06 09:23:31;;;;;;;16.15;2.83;;;4.30;99.30;;;;;;5030736;28;20524;-74
2022/01/06 09:25:57;;;;;;;13.95;2.22;;;4.30;99.40;;;;;;5031674;28;20084;-74
2022/01/06 09:28:28;;;;;;;20.98;2.75;;;4.40;99.60;;;;;;5033048;28;20076;-75
2022/01/06 09:30:55;;;;;;;15.90;2.10;;;4.50;99.40;;;;;;5032934;28;20436;-75
2022/01/06 09:33:22;;;;;;;16.13;2.00;;;4.50;99.20;;;;;;5016483;28;20423;-79
2022/01/06 09:35:49;;;;;;;14.35;2.50;;;4.50;99.10;;;;;;5032943;28;20076;-80
2022/01/06 09:38:16;;;;;;;22.15;2.55;;;4.60;99.30;;;;;;5016430;28;20056;-78
2022/01/06 09:40:44;;;;;;;17.98;2.50;;;4.60;99.20;;;;;;5032804;28;20099;-79
2022/01/06 09:43:12;;;;;;;16.30;2.90;;;4.70;99.20;;;;;;5024421;28;20049;-79
2022/01/06 09:45:39;;;;;;;19.23;2.65;;;4.80;99.00;;;;;;5049019;28;20053;-79
2022/01/06 09:48:05;;;;;;;16.35;2.30;;;4.80;99.10;;;;;;5033504;28;20110;-78
2022/01/06 09:50:32;;;;;;;18.75;2.95;;;4.80;99.30;;;;;;5049187;28;20045;-79
2022/01/06 09:52:58;;;;;;;16.17;2.30;;;4.90;99.00;;;;;;5047405;28;20130;-77
2022/01/06 09:55:24;;;;;;;19.10;3.03;;;4.90;99.20;;;;;;5001653;28;20057;-78
2022/01/06 09:57:57;;;;;;;22.75;2.67;;;5.00;99.20;;;;;;5032296;28;20045;-78
2022/01/06 10:00:24;;;;;;;20.38;3.25;;;5.10;99.10;;;;;;5031781;28;20056;-78
2022/01/06 10:03:00;;;;;;;21.08;2.90;;;5.10;99.10;;;;;;5032411;28;20142;-78
2022/01/06 10:05:26;;;;;;;13.02;2.45;;;5.30;99.00;;;;;;5032196;28;20493;-79
2022/01/06 10:07:53;;;;;;;15.75;2.42;;;5.30;98.80;;;;;;5032446;28;20053;-79
2022/01/06 10:10:25;;;;;;;17.75;2.35;;;5.40;99.00;;;;;;5027277;28;20053;-80
2022/01/06 10:13:05;;;;;;;17.33;2.63;;;5.50;99.00;;;;;;5028049;28;20057;-79
2022/01/06 10:15:32;;;;;;;15.52;2.90;;;5.60;99.00;;;;;;5043786;28;20054;-78
2022/01/06 10:17:57;;;;;;;20.63;2.92;;;5.70;98.80;;;;;;5027834;28;20053;-78
2022/01/06 10:20:27;;;;;;;10.15;1.90;;;5.80;98.70;;;;;;5040926;28;20126;-79
2022/01/06 10:22:57;;;;;;;17.20;2.85;;;5.80;98.70;;;;;;5030383;28;20121;-79
2022/01/06 10:25:28;;;;;;;18.35;2.75;;;6.00;98.80;;;;;;5016557;28;20042;-78
2022/01/06 10:27:56;;;;;;;15.25;2.33;;;6.20;98.00;;;;;;5049897;28;20480;-78
2022/01/06 10:30:25;;;;;;;24.42;2.85;;;6.30;97.70;;;;;;5016576;28;20081;-79
2022/01/06 10:32:57;;;;;;;22.42;2.53;;;6.30;97.30;;;;;;5016572;28;20124;-78
2022/01/06 10:35:22;;;;;;;29.35;2.80;;;6.30;97.30;;;;;;5049863;28;20104;-80
2022/01/06 10:37:49;;;;;;;22.98;2.83;;;6.40;97.30;;;;;;5052227;28;20412;-78
2022/01/06 10:40:18;;;;;;;19.30;2.58;;;6.50;97.30;;;;;;5068583;28;20145;-78
2022/01/06 10:42:49;;;;;;;8.63;1.83;;;6.70;97.50;;;;;;5049684;28;20050;-70
2022/01/06 10:45:24;;;;;;;12.95;2.15;;;7.00;97.50;;;;;;5017404;28;20350;-71
2022/01/06 10:47:55;;;;;;;15.05;2.75;;;7.00;97.00;;;;;;5017569;28;20454;-76
2022/01/06 10:50:28;;;;;;;18.23;2.47;;;7.00;96.90;;;;;;5013899;28;20042;-77
2022/01/06 10:52:56;;;;;;;23.98;2.63;;;7.00;97.20;;;;;;5016903;28;20056;-75
2022/01/06 10:55:27;;;;;;;19.73;2.38;;;7.10;97.40;;;;;;5051936;28;20052;-78
2022/01/06 10:58:13;;;;;;;21.00;2.40;;;7.20;97.40;;;;;;5035299;28;20516;-74
2022/01/06 11:00:43;;;;;;;17.85;2.03;;;7.20;97.40;;;;;;5035851;28;20049;-77
2022/01/06 11:03:19;;;;;;;23.73;3.00;;;7.30;97.50;;;;;;5034104;28;20081;-78
2022/01/06 11:05:51;;;;;;;19.75;2.40;;;7.30;97.50;;;;;;5034319;28;20060;-78
2022/01/06 11:08:20;;;;;;;13.75;2.20;;;7.30;97.50;;;;;;5034907;28;20052;-79
2022/01/06 11:10:50;;;;;;;21.08;2.65;;;7.30;97.50;;;;;;5034780;28;20468;-79
2022/01/06 11:13:17;;;;;;;15.73;2.28;;;7.30;97.40;;;;;;5034693;28;20057;-78
2022/01/06 11:15:44;;;;;;;19.55;2.20;;;7.30;97.50;;;;;;5035084;28;20076;-78
2022/01/06 11:18:16;;;;;;;20.10;2.50;;;7.30;97.40;;;;;;5035321;28;20049;-77
2022/01/06 11:20:43;;;;;;;22.00;2.88;;;7.20;97.30;;;;;;5035015;28;20473;-79
2022/01/06 11:23:20;;;;;;;22.58;2.67;;;7.30;97.60;;;;;;5034822;28;20038;-79
2022/01/06 11:25:45;;;;;;;27.67;3.33;;;7.40;97.70;;;;;;5019398;28;20037;-82
2022/01/06 11:28:12;;;;;;;17.23;3.45;;;7.50;97.50;;;;;;5035345;28;20044;-81
2022/01/06 11:30:47;;;;;;;18.58;3.30;;;7.50;97.20;;;;;;5035254;28;20041;-82
2022/01/06 11:33:14;;;;;;;30.25;4.03;;;7.50;97.40;;;;;;5035044;28;20041;-81
2022/01/06 11:35:53;;;;;;;32.22;3.22;;;7.70;97.40;;;;;;5035791;28;20496;-81
2022/01/06 11:38:23;;;;;;;24.45;2.95;;;7.60;97.20;;;;;;5052978;28;20111;-82
2022/01/06 11:40:50;;;;;;;19.67;2.83;;;7.60;97.20;;;;;;5018563;28;20041;-81
2022/01/06 11:43:18;;;;;;;21.67;3.55;;;7.60;97.00;;;;;;5035420;28;20045;-81
2022/01/06 11:45:44;;;;;;;29.10;3.22;;;7.50;97.30;;;;;;5034800;28;20104;-81
2022/01/06 11:48:16;;;;;;;16.63;2.20;;;7.70;97.30;;;;;;5035485;28;20084;-79
2022/01/06 11:50:47;;;;;;;21.80;2.95;;;7.70;97.60;;;;;;5051116;28;20041;-74
2022/01/06 11:53:15;;;;;;;31.35;3.80;;;8.20;97.50;;;;;;5040078;28;20049;-75
2022/01/06 11:55:43;;;;;;;22.08;3.53;;;8.40;97.00;;;;;;5034396;28;20488;-76
2022/01/06 11:58:17;;;;;;;17.75;2.72;;;8.50;97.30;;;;;;5018278;28;20385;-74
2022/01/06 12:01:02;;;;;;;31.08;3.60;;;8.60;96.90;;;;;;5015129;28;20047;-75
2022/01/06 12:03:44;;;;;;;24.33;3.60;;;8.40;96.90;;;;;;5014912;28;20042;-77
2022/01/06 12:06:28;;;;;;;27.20;3.22;;;7.90;97.30;;;;;;5014426;28;20058;-76
2022/01/06 12:08:55;;;;;;;22.75;3.33;;;7.60;97.70;;;;;;5015003;28;20362;-76
2022/01/06 12:11:21;;;;;;;26.77;2.85;;;7.70;97.50;;;;;;5031586;28;20065;-76
2022/01/06 12:13:48;;;;;;;15.52;2.90;;;7.70;97.80;;;;;;5014947;28;20072;-76
2022/01/06 12:16:33;;;;;;;22.65;2.95;;;8.30;97.30;;;;;;5014776;28;20048;-75
2022/01/06 12:19:01;;;;;;;19.38;2.95;;;8.40;97.10;;;;;;5031477;28;20041;-76
2022/01/06 12:21:27;;;;;;;21.48;2.90;;;9.00;96.90;;;;;;5014809;28;20054;-75
2022/01/06 12:24:04;;;;;;;16.88;2.45;;;8.90;96.40;;;;;;5013836;28;20045;-75
2022/01/06 12:26:31;;;;;;;16.08;2.72;;;8.90;96.90;;;;;;5014670;28;20366;-74
2022/01/06 12:28:57;;;;;;;24.23;2.95;;;9.00;96.40;;;;;;5014505;28;20045;-75
2022/01/06 12:31:30;;;;;;;14.68;2.70;;;8.80;96.30;;;;;;5014369;28;20049;-75
2022/01/06 12:34:02;;;;;;;21.45;2.92;;;8.60;96.50;;;;;;5031147;28;20057;-75
2022/01/06 12:36:43;;;;;;;19.70;2.42;;;8.60;96.60;;;;;;5014600;28;20045;-75
2022/01/06 12:39:27;;;;;;;17.75;2.20;;;8.50;96.30;;;;;;5014568;28;20465;-75
2022/01/06 12:41:53;;;;;;;18.70;2.78;;;8.60;96.40;;;;;;5030874;28;20038;-74
2022/01/06 12:44:25;;;;;;;18.70;2.55;;;8.90;96.40;;;;;;5030321;28;20041;-75
2022/01/06 12:46:51;;;;;;;15.35;2.58;;;9.10;96.00;;;;;;5030779;28;20057;-74
2022/01/06 12:49:21;;;;;;;13.73;2.40;;;9.40;96.10;;;;;;5030541;28;20053;-77
2022/01/06 12:51:47;;;;;;;18.25;2.63;;;9.50;95.90;;;;;;5014005;28;20045;-77
2022/01/06 12:54:19;;;;;;;16.90;2.60;;;10.30;95.80;;;;;;5013748;28;20100;-77
2022/01/06 12:56:49;;;;;;;23.05;2.55;;;11.30;95.20;;;;;;5014113;28;20058;-77
2022/01/06 12:59:17;;;;;;;16.75;2.78;;;11.80;94.50;;;;;;5014024;28;20504;-77
2022/01/06 13:01:44;;;;;;;14.50;2.58;;;12.40;94.10;;;;;;5030004;28;20050;-77
2022/01/06 13:04:11;;;;;;;24.88;2.90;;;12.70;93.70;;;;;;5013268;28;20045;-78